Time;durP1;ratioP1;P1;durP2;ratioP2;P2;SDS_P1;SDS_P2;PMS_P1;PMS_P2;Temp;Humidity;BMP_temperature;BMP_pressure;BME280_temperature;BME280_humidity;BME280_pressure;Samples;Min_cycle;Max_cycle;Signal;HPM_P1;HPM_P2
2021/07/07 00:00:28;;;;;;;;;;;;;;;;;;10287732;28;19925;-66
2021/07/07 00:05:25;;;;;;;;;;;;;;;;;;10289154;28;19983;-64
2021/07/07 00:10:23;;;;;;;;;;;;;;;;;;10284253;28;19924;-65
2021/07/07 00:15:20;;;;;;;;;;;;;;;;;;10286911;28;19963;-65
2021/07/07 00:20:19;;;;;;;;;;;;;;;;;;10289295;22;19928;-62
2021/07/07 00:25:16;;;;;;;;;;;;;;;;;;10280065;28;19913;-63
2021/07/07 00:30:14;;;;;;;;;;;;;;;;;;10275813;28;20299;-63
2021/07/07 00:35:11;;;;;;;;;;;;;;;;;;10361348;22;19928;-64
2021/07/07 00:40:08;;;;;;;;;;;;;;;;;;10288706;28;20302;-63
2021/07/07 00:45:05;;;;;;;;;;;;;;;;;;10296282;28;19921;-63
2021/07/07 00:50:03;;;;;;;;;;;;;;;;;;10286579;28;19913;-63
2021/07/07 00:55:00;;;;;;;;;;;;;;;;;;10291577;28;19932;-63
2021/07/07 00:59:57;;;;;;;;;;;;;;;;;;10305646;28;19913;-64
2021/07/07 01:04:54;;;;;;;;;;;;;;;;;;10281073;28;19913;-64
2021/07/07 01:09:52;;;;;;;;;;;;;;;;;;10281918;28;20425;-62
2021/07/07 01:14:49;;;;;;;;;;;;;;;;;;10294315;28;19921;-64
2021/07/07 01:19:47;;;;;;;;;;;;;;;;;;10284280;28;20003;-64
2021/07/07 01:24:44;;;;;;;;;;;;;;;;;;10281384;28;19925;-64
2021/07/07 01:29:41;;;;;;;;;;;;;;;;;;10297761;28;19913;-63
2021/07/07 01:34:39;;;;;;;;;;;;;;;;;;10277700;28;19959;-63
2021/07/07 01:39:36;;;;;;;;;;;;;;;;;;10279755;28;19913;-63
2021/07/07 01:44:33;;;;;;;;;;;;;;;;;;10278110;28;20335;-64
2021/07/07 01:49:31;;;;;;;;;;;;;;;;;;10278841;28;20367;-64
2021/07/07 01:54:28;;;;;;;;;;;;;;;;;;10276696;28;19924;-65
2021/07/07 01:59:25;;;;;;;;;;;;;;;;;;10277537;28;19913;-64
2021/07/07 02:04:23;;;;;;;;;;;;;;;;;;10270650;28;19917;-64
2021/07/07 02:09:20;;;;;;;;;;;;;;;;;;10285304;28;19917;-64
2021/07/07 02:14:17;;;;;;;;;;;;;;;;;;10276963;28;19921;-64
2021/07/07 02:19:15;;;;;;;;;;;;;;;;;;10273760;28;20256;-64
2021/07/07 02:24:12;;;;;;;;;;;;;;;;;;10277036;28;20044;-64
2021/07/07 02:29:09;;;;;;;;;;;;;;;;;;10279293;28;19920;-64
2021/07/07 02:34:07;;;;;;;;;;;;;;;;;;10277895;28;19921;-64
2021/07/07 02:39:04;;;;;;;;;;;;;;;;;;10265876;28;20405;-64
2021/07/07 02:44:01;;;;;;;;;;;;;;;;;;10287642;28;19917;-64
2021/07/07 02:48:58;;;;;;;;;;;;;;;;;;10271721;28;19921;-64
2021/07/07 02:53:56;;;;;;;;;;;;;;;;;;10269156;28;19921;-64
2021/07/07 02:58:53;;;;;;;;;;;;;;;;;;10274356;28;19959;-64
2021/07/07 03:03:50;;;;;;;;;;;;;;;;;;10290373;28;19909;-64
2021/07/07 03:08:48;;;;;;;;;;;;;;;;;;10298468;28;19908;-64
2021/07/07 03:13:45;;;;;;;;;;;;;;;;;;10268551;28;19917;-64
2021/07/07 03:18:42;;;;;;;;;;;;;;;;;;10285123;28;20051;-64
2021/07/07 03:23:39;;;;;;;;;;;;;;;;;;10268366;28;20268;-64
2021/07/07 03:28:37;;;;;;;;;;;;;;;;;;10265306;28;19906;-64
2021/07/07 03:33:34;;;;;;;;;;;;;;;;;;10280694;28;20003;-64
2021/07/07 03:38:31;;;;;;;;;;;;;;;;;;10301559;28;20228;-64
2021/07/07 03:43:28;;;;;;;;;;;;;;;;;;10285670;28;19917;-64
2021/07/07 03:48:26;;;;;;;;;;;;;;;;;;10262420;28;19913;-63
2021/07/07 03:53:23;;;;;;;;;;;;;;;;;;10300654;28;19928;-63
2021/07/07 03:58:20;;;;;;;;;;;;;;;;;;10299863;28;19913;-63
2021/07/07 04:03:18;;;;;;;;;;;;;;;;;;10270509;28;20047;-63
2021/07/07 04:08:15;;;;;;;;;;;;;;;;;;10292551;28;19935;-63
2021/07/07 04:13:12;;;;;;;;;;;;;;;;;;10306468;28;19920;-64
2021/07/07 04:18:10;;;;;;;;;;;;;;;;;;10307593;28;19925;-63
2021/07/07 04:23:07;;;;;;;;;;;;;;;;;;10296104;28;20023;-63
2021/07/07 04:28:06;;;;;;;;;;;;;;;;;;10303673;28;19917;-63
2021/07/07 04:33:03;;;;;;;;;;;;;;;;;;10280813;28;19918;-63
2021/07/07 04:38:00;;;;;;;;;;;;;;;;;;10249606;28;19917;-63
2021/07/07 04:42:58;;;;;;;;;;;;;;;;;;10275630;28;19921;-63
2021/07/07 04:47:55;;;;;;;;;;;;;;;;;;10271523;28;19913;-63
2021/07/07 04:52:52;;;;;;;;;;;;;;;;;;10266031;28;19945;-63
2021/07/07 04:57:50;;;;;;;;;;;;;;;;;;10281882;28;20470;-63
2021/07/07 05:02:47;;;;;;;;;;;;;;;;;;10276399;28;20394;-63
2021/07/07 05:07:44;;;;;;;;;;;;;;;;;;10296359;28;19924;-62
2021/07/07 05:12:42;;;;;;;;;;;;;;;;;;10292479;28;20394;-62
2021/07/07 05:17:39;;;;;;;;;;;;;;;;;;10272758;28;19925;-62
2021/07/07 05:22:36;;;;;;;;;;;;;;;;;;10284630;28;20525;-62
2021/07/07 05:27:34;;;;;;;;;;;;;;;;;;10296338;28;19971;-62
2021/07/07 05:32:31;;;;;;;;;;;;;;;;;;10300499;28;20016;-62
2021/07/07 05:37:28;;;;;;;;;;;;;;;;;;10293916;28;19925;-62
2021/07/07 05:42:25;;;;;;;;;;;;;;;;;;10298349;28;20039;-62
2021/07/07 05:47:24;;;;;;;;;;;;;;;;;;10296631;28;20019;-62
2021/07/07 05:52:21;;;;;;;;;;;;;;;;;;10297357;28;20582;-62
2021/07/07 05:57:19;;;;;;;;;;;;;;;;;;10298719;28;19924;-62
2021/07/07 06:02:16;;;;;;;;;;;;;;;;;;10296288;28;20264;-62
2021/07/07 06:07:14;;;;;;;;;;;;;;;;;;10296190;28;19920;-62
2021/07/07 06:12:11;;;;;;;;;;;;;;;;;;10295992;28;19948;-62
2021/07/07 06:17:08;;;;;;;;;;;;;;;;;;10295715;28;19917;-62
2021/07/07 06:22:06;;;;;;;;;;;;;;;;;;10295299;28;19913;-62
2021/07/07 06:27:03;;;;;;;;;;;;;;;;;;10277754;28;19955;-62
2021/07/07 06:32:01;;;;;;;;;;;;;;;;;;10298669;28;19967;-62
2021/07/07 06:36:58;;;;;;;;;;;;;;;;;;10298175;28;20016;-62
2021/07/07 06:41:55;;;;;;;;;;;;;;;;;;10299928;28;19950;-62
2021/07/07 06:46:53;;;;;;;;;;;;;;;;;;10295979;28;19940;-62
2021/07/07 06:51:50;;;;;;;;;;;;;;;;;;10294732;28;19913;-62
2021/07/07 06:56:49;;;;;;;;;;;;;;;;;;10277596;28;19921;-62
2021/07/07 07:01:47;;;;;;;;;;;;;;;;;;10290561;28;19920;-62
2021/07/07 07:06:44;;;;;;;;;;;;;;;;;;10293434;28;19963;-63
2021/07/07 07:11:41;;;;;;;;;;;;;;;;;;10285566;28;19920;-62
2021/07/07 07:16:39;;;;;;;;;;;;;;;;;;10288956;28;19921;-62
2021/07/07 07:21:36;;;;;;;;;;;;;;;;;;10300636;28;19959;-63
2021/07/07 07:26:34;;;;;;;;;;;;;;;;;;10299987;28;19966;-62
2021/07/07 07:31:31;;;;;;;;;;;;;;;;;;10282925;28;19913;-63
2021/07/07 07:36:28;;;;;;;;;;;;;;;;;;10279899;28;19979;-62
2021/07/07 07:41:26;;;;;;;;;;;;;;;;;;10293064;28;19913;-62
2021/07/07 07:46:23;;;;;;;;;;;;;;;;;;10303242;28;20356;-63
2021/07/07 07:51:20;;;;;;;;;;;;;;;;;;10315077;28;19913;-63
2021/07/07 07:56:17;;;;;;;;;;;;;;;;;;10298026;28;19968;-63
2021/07/07 08:01:15;;;;;;;;;;;;;;;;;;10316171;28;20028;-63
2021/07/07 08:06:12;;;;;;;;;;;;;;;;;;10299326;28;19913;-62
2021/07/07 08:11:10;;;;;;;;;;;;;;;;;;10295098;28;19913;-63
2021/07/07 08:16:08;;;;;;;;;;;;;;;;;;10305290;28;20286;-63
2021/07/07 08:21:06;;;;;;;;;;;;;;;;;;10292553;28;19913;-63
2021/07/07 08:26:03;;;;;;;;;;;;;;;;;;10286593;28;19943;-63
2021/07/07 08:31:00;;;;;;;;;;;;;;;;;;10286905;28;19913;-62
2021/07/07 08:35:57;;;;;;;;;;;;;;;;;;10292558;28;19924;-63
2021/07/07 08:40:55;;;;;;;;;;;;;;;;;;10286239;28;20260;-63
2021/07/07 08:45:52;;;;;;;;;;;;;;;;;;10288219;28;19921;-63
2021/07/07 08:50:53;;;;;;;;;;;;;;;;;;10283812;28;20386;-63
2021/07/07 08:55:52;;;;;;;;;;;;;;;;;;10287800;28;19921;-63
2021/07/07 09:00:49;;;;;;;;;;;;;;;;;;10278541;28;19914;-63
2021/07/07 09:05:47;;;;;;;;;;;;;;;;;;10290387;28;19913;-63
2021/07/07 09:10:44;;;;;;;;;;;;;;;;;;10283117;28;19920;-63
2021/07/07 09:15:41;;;;;;;;;;;;;;;;;;10296058;28;19978;-63
2021/07/07 09:20:40;;;;;;;;;;;;;;;;;;10290522;28;20299;-63
2021/07/07 09:25:37;;;;;;;;;;;;;;;;;;10296977;28;19917;-63
2021/07/07 09:30:35;;;;;;;;;;;;;;;;;;10288398;28;19920;-63
2021/07/07 09:35:32;;;;;;;;;;;;;;;;;;10293338;28;19924;-63
2021/07/07 09:40:29;;;;;;;;;;;;;;;;;;10299072;28;19913;-60
2021/07/07 09:45:26;;;;;;;;;;;;;;;;;;10286900;28;20153;-63
2021/07/07 09:50:24;;;;;;;;;;;;;;;;;;10284531;28;19924;-63
2021/07/07 09:55:21;;;;;;;;;;;;;;;;;;10267697;28;20513;-65
2021/07/07 10:00:19;;;;;;;;;;;;;;;;;;10278945;28;19917;-65
2021/07/07 10:05:16;;;;;;;;;;;;;;;;;;10271838;28;20042;-65
2021/07/07 10:10:13;;;;;;;;;;;;;;;;;;10281022;28;19919;-65
2021/07/07 10:15:11;;;;;;;;;;;;;;;;;;10279870;28;19970;-65
2021/07/07 10:20:08;;;;;;;;;;;;;;;;;;10285802;28;19920;-65
2021/07/07 10:25:06;;;;;;;;;;;;;;;;;;10278295;28;19913;-65
2021/07/07 10:30:03;;;;;;;;;;;;;;;;;;10269925;28;19919;-65
2021/07/07 10:35:00;;;;;;;;;;;;;;;;;;10261029;28;20000;-65
2021/07/07 10:39:57;;;;;;;;;;;;;;;;;;10265322;28;19936;-65
2021/07/07 10:44:55;;;;;;;;;;;;;;;;;;10263965;28;20548;-64
2021/07/07 10:49:54;;;;;;;;;;;;;;;;;;10259581;28;19917;-64
2021/07/07 10:54:51;;;;;;;;;;;;;;;;;;10269141;28;19917;-64
2021/07/07 10:59:48;;;;;;;;;;;;;;;;;;10282819;28;19913;-64
2021/07/07 11:04:45;;;;;;;;;;;;;;;;;;10271133;28;20019;-64
2021/07/07 11:09:43;;;;;;;;;;;;;;;;;;10269831;28;19924;-65
2021/07/07 11:14:40;;;;;;;;;;;;;;;;;;10251298;28;19924;-65
2021/07/07 11:19:38;;;;;;;;;;;;;;;;;;10263883;28;20375;-65
2021/07/07 11:24:35;;;;;;;;;;;;;;;;;;10274878;28;20429;-65
2021/07/07 11:29:33;;;;;;;;;;;;;;;;;;10274002;28;19995;-65
2021/07/07 11:34:30;;;;;;;;;;;;;;;;;;10270014;28;19921;-64
2021/07/07 11:39:27;;;;;;;;;;;;;;;;;;10284408;28;19913;-64
2021/07/07 11:44:25;;;;;;;;;;;;;;;;;;10282079;28;19917;-64
2021/07/07 11:49:22;;;;;;;;;;;;;;;;;;10270482;28;19928;-61
2021/07/07 11:54:22;;;;;;;;;;;;;;;;;;10305615;22;20037;-64
2021/07/07 11:59:20;;;;;;;;;;;;;;;;;;10343650;28;19918;-64
2021/07/07 12:04:17;;;;;;;;;;;;;;;;;;10325526;28;19916;-63
2021/07/07 12:09:18;;;;;;;;;;;;;;;;;;10324865;28;19992;-63
2021/07/07 12:14:15;;;;;;;;;;;;;;;;;;10305971;28;20486;-62
2021/07/07 12:19:13;;;;;;;;;;;;;;;;;;10320136;28;19916;-63
2021/07/07 12:24:10;;;;;;;;;;;;;;;;;;10307784;28;20362;-63
2021/07/07 12:29:07;;;;;;;;;;;;;;;;;;10316614;28;19913;-64
2021/07/07 12:34:06;;;;;;;;;;;;;;;;;;10304201;28;20366;-64
2021/07/07 12:39:03;;;;;;;;;;;;;;;;;;10316464;28;19913;-63
2021/07/07 12:44:09;;;;;;;;;;;;;;;;;;10317386;28;20300;-64
2021/07/07 12:49:06;;;;;;;;;;;;;;;;;;10324895;28;19927;-63
2021/07/07 12:54:04;;;;;;;;;;;;;;;;;;10322567;28;19920;-64
2021/07/07 12:59:01;;;;;;;;;;;;;;;;;;10326096;28;19916;-63
2021/07/07 13:03:58;;;;;;;;;;;;;;;;;;10333667;28;19916;-63
2021/07/07 13:08:56;;;;;;;;;;;;;;;;;;10329985;28;19909;-64
2021/07/07 13:13:54;;;;;;;;;;;;;;;;;;10339267;28;19942;-63
2021/07/07 13:18:52;;;;;;;;;;;;;;;;;;10311380;28;19906;-64
2021/07/07 13:23:49;;;;;;;;;;;;;;;;;;10332736;28;19975;-63
2021/07/07 13:28:50;;;;;;;;;;;;;;;;;;10310935;28;19909;-64
2021/07/07 13:33:47;;;;;;;;;;;;;;;;;;10318725;28;19956;-64
2021/07/07 13:38:44;;;;;;;;;;;;;;;;;;10311040;28;20462;-63
2021/07/07 13:43:43;;;;;;;;;;;;;;;;;;10318731;28;19943;-62
2021/07/07 13:48:41;;;;;;;;;;;;;;;;;;10310262;28;21458;-63
2021/07/07 13:53:38;;;;;;;;;;;;;;;;;;10318279;28;19917;-62
2021/07/07 13:58:35;;;;;;;;;;;;;;;;;;10320119;28;19943;-63
2021/07/07 14:03:33;;;;;;;;;;;;;;;;;;10324077;28;19987;-63
2021/07/07 14:08:30;;;;;;;;;;;;;;;;;;10300148;28;19913;-63
2021/07/07 14:13:27;;;;;;;;;;;;;;;;;;10309827;28;19920;-63
2021/07/07 14:18:24;;;;;;;;;;;;;;;;;;10308347;28;19978;-62
2021/07/07 14:23:22;;;;;;;;;;;;;;;;;;10306507;28;19913;-63
2021/07/07 14:28:19;;;;;;;;;;;;;;;;;;10316860;28;20020;-62
2021/07/07 14:33:16;;;;;;;;;;;;;;;;;;10310502;28;20341;-62
2021/07/07 14:38:14;;;;;;;;;;;;;;;;;;10324966;28;19982;-61
2021/07/07 14:43:11;;;;;;;;;;;;;;;;;;10327763;28;20147;-61
2021/07/07 14:48:08;;;;;;;;;;;;;;;;;;10316223;28;19913;-62
2021/07/07 14:53:05;;;;;;;;;;;;;;;;;;10360833;22;19920;-62
2021/07/07 14:58:03;;;;;;;;;;;;;;;;;;10328480;28;19921;-63
2021/07/07 15:03:00;;;;;;;;;;;;;;;;;;10336673;28;19981;-62
2021/07/07 15:07:57;;;;;;;;;;;;;;;;;;10331032;28;19913;-63
2021/07/07 15:12:55;;;;;;;;;;;;;;;;;;10305772;28;19917;-63
2021/07/07 15:17:52;;;;;;;;;;;;;;;;;;10328710;28;20401;-63
2021/07/07 15:22:49;;;;;;;;;;;;;;;;;;10274905;22;20025;-63
2021/07/07 15:27:47;;;;;;;;;;;;;;;;;;10228421;28;19932;-64
2021/07/07 15:32:44;;;;;;;;;;;;;;;;;;10239436;28;19952;-64
2021/07/07 15:37:41;;;;;;;;;;;;;;;;;;10244099;28;19929;-64
2021/07/07 15:42:39;;;;;;;;;;;;;;;;;;10240086;28;19917;-64
2021/07/07 15:47:36;;;;;;;;;;;;;;;;;;10247083;28;20521;-64
2021/07/07 15:52:33;;;;;;;;;;;;;;;;;;10248874;28;20284;-63
2021/07/07 15:57:30;;;;;;;;;;;;;;;;;;10243127;28;19924;-63
2021/07/07 16:02:28;;;;;;;;;;;;;;;;;;10252893;28;19913;-64
2021/07/07 16:07:25;;;;;;;;;;;;;;;;;;10251722;28;20652;-67
2021/07/07 16:12:23;;;;;;;;;;;;;;;;;;10229555;28;19917;-64
2021/07/07 16:17:21;;;;;;;;;;;;;;;;;;10253676;28;19939;-62
2021/07/07 16:22:18;;;;;;;;;;;;;;;;;;10240393;28;19924;-63
2021/07/07 16:27:16;;;;;;;;;;;;;;;;;;10238020;28;20136;-63
2021/07/07 16:32:13;;;;;;;;;;;;;;;;;;10237738;28;19966;-63
2021/07/07 16:37:10;;;;;;;;;;;;;;;;;;10251631;28;19917;-65
2021/07/07 16:42:08;;;;;;;;;;;;;;;;;;10246815;28;19913;-62
2021/07/07 16:47:05;;;;;;;;;;;;;;;;;;10239040;28;20901;-63
2021/07/07 16:52:02;;;;;;;;;;;;;;;;;;10251307;28;19920;-63
2021/07/07 16:57:00;;;;;;;;;;;;;;;;;;10245385;28;19987;-62
2021/07/07 17:01:58;;;;;;;;;;;;;;;;;;10249799;28;19920;-63
2021/07/07 17:06:55;;;;;;;;;;;;;;;;;;10234203;28;19959;-63
2021/07/07 17:11:52;;;;;;;;;;;;;;;;;;10244186;28;20260;-62
2021/07/07 17:16:50;;;;;;;;;;;;;;;;;;10240514;28;19972;-62
2021/07/07 17:21:47;;;;;;;;;;;;;;;;;;10235823;28;20387;-63
2021/07/07 17:26:44;;;;;;;;;;;;;;;;;;10241194;28;19929;-63
2021/07/07 17:31:42;;;;;;;;;;;;;;;;;;10251958;28;19917;-64
2021/07/07 17:36:39;;;;;;;;;;;;;;;;;;10243914;28;19917;-64
2021/07/07 17:41:36;;;;;;;;;;;;;;;;;;10248143;28;19924;-64
2021/07/07 17:46:33;;;;;;;;;;;;;;;;;;10254323;28;19918;-64
2021/07/07 17:51:31;;;;;;;;;;;;;;;;;;10250842;28;19914;-63
2021/07/07 17:56:29;;;;;;;;;;;;;;;;;;10238059;28;19925;-63
2021/07/07 18:01:26;;;;;;;;;;;;;;;;;;10254713;28;19913;-62
2021/07/07 18:06:23;;;;;;;;;;;;;;;;;;10231607;28;20311;-65
2021/07/07 18:11:20;;;;;;;;;;;;;;;;;;10247612;28;19913;-64
2021/07/07 18:16:18;;;;;;;;;;;;;;;;;;10244902;28;19940;-64
2021/07/07 18:21:15;;;;;;;;;;;;;;;;;;10251108;28;20367;-64
2021/07/07 18:26:12;;;;;;;;;;;;;;;;;;10255738;28;19913;-64
2021/07/07 18:31:09;;;;;;;;;;;;;;;;;;10242282;28;19923;-65
2021/07/07 18:36:08;;;;;;;;;;;;;;;;;;10244576;28;20291;-65
2021/07/07 18:41:05;;;;;;;;;;;;;;;;;;10240505;28;19971;-63
2021/07/07 18:46:03;;;;;;;;;;;;;;;;;;10245451;28;20368;-64
2021/07/07 18:51:01;;;;;;;;;;;;;;;;;;10246882;28;19913;-64
2021/07/07 18:55:59;;;;;;;;;;;;;;;;;;10245199;28;20066;-64
2021/07/07 19:00:56;;;;;;;;;;;;;;;;;;10240013;28;19913;-66
2021/07/07 19:05:53;;;;;;;;;;;;;;;;;;10248529;28;19921;-65
2021/07/07 19:10:50;;;;;;;;;;;;;;;;;;10242558;28;20299;-63
2021/07/07 19:15:48;;;;;;;;;;;;;;;;;;10240660;28;19936;-64
2021/07/07 19:20:45;;;;;;;;;;;;;;;;;;10241094;28;20001;-63
2021/07/07 19:25:42;;;;;;;;;;;;;;;;;;10242191;28;19918;-63
2021/07/07 19:30:40;;;;;;;;;;;;;;;;;;10241415;28;20324;-65
2021/07/07 19:35:37;;;;;;;;;;;;;;;;;;10248110;28;19933;-63
2021/07/07 19:40:34;;;;;;;;;;;;;;;;;;10253223;28;19913;-64
2021/07/07 19:45:31;;;;;;;;;;;;;;;;;;10251379;28;19918;-64
2021/07/07 19:50:30;;;;;;;;;;;;;;;;;;10226717;28;20999;-66
2021/07/07 19:55:27;;;;;;;;;;;;;;;;;;10253406;28;19939;-64
2021/07/07 20:00:24;;;;;;;;;;;;;;;;;;10252731;28;19929;-64
2021/07/07 20:05:22;;;;;;;;;;;;;;;;;;10251599;28;19963;-65
2021/07/07 20:10:19;;;;;;;;;;;;;;;;;;10243096;28;19967;-64
2021/07/07 20:15:16;;;;;;;;;;;;;;;;;;10253261;28;19944;-64
2021/07/07 20:20:13;;;;;;;;;;;;;;;;;;10248439;28;19913;-65
2021/07/07 20:25:11;;;;;;;;;;;;;;;;;;10248159;28;20326;-64
2021/07/07 20:30:08;;;;;;;;;;;;;;;;;;10225897;28;19921;-63
2021/07/07 20:35:05;;;;;;;;;;;;;;;;;;10254037;28;20008;-65
2021/07/07 20:40:03;;;;;;;;;;;;;;;;;;10243800;28;19968;-64
2021/07/07 20:45:00;;;;;;;;;;;;;;;;;;10251934;28;19920;-64
2021/07/07 20:49:57;;;;;;;;;;;;;;;;;;10240993;28;19918;-65
2021/07/07 20:54:55;;;;;;;;;;;;;;;;;;10261390;28;19918;-64
2021/07/07 20:59:52;;;;;;;;;;;;;;;;;;10252441;28;19920;-64
2021/07/07 21:04:50;;;;;;;;;;;;;;;;;;10253548;28;19918;-64
2021/07/07 21:09:47;;;;;;;;;;;;;;;;;;10257482;28;20024;-64
2021/07/07 21:14:44;;;;;;;;;;;;;;;;;;10246546;28;19924;-65
2021/07/07 21:19:41;;;;;;;;;;;;;;;;;;10258896;28;19913;-65
2021/07/07 21:24:39;;;;;;;;;;;;;;;;;;10252296;28;20573;-65
2021/07/07 21:29:36;;;;;;;;;;;;;;;;;;10256219;28;20121;-65
2021/07/07 21:34:33;;;;;;;;;;;;;;;;;;10260218;28;19913;-65
2021/07/07 21:39:31;;;;;;;;;;;;;;;;;;10244578;28;19913;-65
2021/07/07 21:44:28;;;;;;;;;;;;;;;;;;10228383;28;19980;-64
2021/07/07 21:49:25;;;;;;;;;;;;;;;;;;10243608;28;19917;-65
2021/07/07 21:54:23;;;;;;;;;;;;;;;;;;10222017;28;19918;-65
2021/07/07 21:59:21;;;;;;;;;;;;;;;;;;10250019;28;20367;-64
2021/07/07 22:04:18;;;;;;;;;;;;;;;;;;10233817;28;19913;-65
2021/07/07 22:09:15;;;;;;;;;;;;;;;;;;10232287;28;19917;-64
2021/07/07 22:14:12;;;;;;;;;;;;;;;;;;10239971;28;19917;-64
2021/07/07 22:19:10;;;;;;;;;;;;;;;;;;10216497;28;20451;-63
2021/07/07 22:24:07;;;;;;;;;;;;;;;;;;10245327;28;19921;-64
2021/07/07 22:29:10;;;;;;;;;;;;;;;;;;10241371;28;19913;-63
2021/07/07 22:34:07;;;;;;;;;;;;;;;;;;10239260;28;19921;-64
2021/07/07 22:39:05;;;;;;;;;;;;;;;;;;10244619;28;20000;-63
2021/07/07 22:44:02;;;;;;;;;;;;;;;;;;10244002;28;20011;-64
2021/07/07 22:48:59;;;;;;;;;;;;;;;;;;10230581;28;19940;-64
2021/07/07 22:53:56;;;;;;;;;;;;;;;;;;10236549;28;20298;-65
2021/07/07 22:58:54;;;;;;;;;;;;;;;;;;10235601;28;19928;-63
2021/07/07 23:03:51;;;;;;;;;;;;;;;;;;10233514;28;20655;-63
2021/07/07 23:08:48;;;;;;;;;;;;;;;;;;10229054;28;20280;-65
2021/07/07 23:13:48;;;;;;;;;;;;;;;;;;10233408;28;19917;-62
2021/07/07 23:18:45;;;;;;;;;;;;;;;;;;10228513;28;19914;-64
2021/07/07 23:23:43;;;;;;;;;;;;;;;;;;10228053;28;19917;-64
2021/07/07 23:28:40;;;;;;;;;;;;;;;;;;10244883;28;19917;-64
2021/07/07 23:33:37;;;;;;;;;;;;;;;;;;10218119;28;19925;-65
2021/07/07 23:38:34;;;;;;;;;;;;;;;;;;10235844;28;20415;-66
2021/07/07 23:43:32;;;;;;;;;;;;;;;;;;10243981;28;21238;-65
2021/07/07 23:48:29;;;;;;;;;;;;;;;;;;10199115;28;19992;-65
2021/07/07 23:53:26;;;;;;;;;;;;;;;;;;10217825;28;19979;-64
2021/07/07 23:58:23;;;;;;;;;;;;;;;;;;10235357;28;20397;-65
